Flight Track Log - Related Links

Times and Time Zones

All times are in EDT time to prevent confusion due to time zone crossing. See the RJA623 flight status page for this flight to view local times or setup timezone preferences in your user account.


Time Position Orientation Groundspeed Altitude Reporting Facility
EDT Latitude Longitude Course Direction KTS MPH feet Rate Location/Type
Sun 01:07:28 AM 26.5350 51.0338 290° West 420 483 38,000  Level FlightAware ADS-B (BAH / OBBI)
Sun 01:07:56 AM 26.5494 50.9887 290° West 420 483 38,000  Level FlightAware ADS-B (BAH / OBBI)
Sun 01:08:29 AM 26.5743 50.9095 290° West 419 482 38,000  Level FlightAware ADS-B (BAH / OBBI)
Sun 01:09:04 AM 26.5970 50.8377 290° West 419 482 38,000  Level FlightAware ADS-B (BAH / OBBI)
Sun 01:09:34 AM 26.6164 50.7759 290° West 418 481 38,000  Level FlightAware ADS-B (BAH / OBBI)
Sun 01:10:04 AM 26.6357 50.7147 290° West 418 481 38,000  Level FlightAware ADS-B (BAH / OBBI)
Sun 01:10:34 AM 26.6545 50.6528 289° West 417 480 38,000  Level FlightAware ADS-B (BAH / OBBI)
Sun 01:11:04 AM 26.6720 50.5918 288° West 416 479 38,000  Level FlightAware ADS-B (BAH / OBBI)
Sun 01:11:34 AM 26.6898 50.5304 289° West 417 480 38,000  Level FlightAware ADS-B (BAH / OBBI)
Sun 01:12:04 AM 26.7077 50.4694 289° West 417 480 38,000  Level FlightAware ADS-B (BAH / OBBI)
Sun 01:12:34 AM 26.7251 50.4095 288° West 418 481 38,000  Level FlightAware ADS-B (BAH / OBBI)
Sun 01:13:09 AM 26.7442 50.3359 283° West 418 481 38,000  Level FlightAware ADS-B (BAH / OBBI)
Sun 01:13:44 AM 26.7542 50.2590 275° West 420 483 38,000  Level FlightAware ADS-B (BAH / OBBI)
Sun 01:14:14 AM 26.7551 50.1959 268° West 420 483 38,000  Level FlightAware ADS-B (BAH / OBBI)
Sun 01:14:44 AM 26.7530 50.1295 269° West 420 483 38,000  Level FlightAware ADS-B (BAH / OBBI)
Sun 01:15:15 AM 26.7515 50.0704 269° West 420 483 38,000  Level FlightAware ADS-B (BAH / OBBI)
Sun 01:15:44 AM 26.7495 49.9993 269° West 419 482 38,000  Level FlightAware ADS-B (BAH / OBBI)
Sun 01:16:15 AM 26.7476 49.9348 268° West 418 481 38,000  Level FlightAware ADS-B (BAH / OBBI)
Sun 01:16:44 AM 26.7456 49.8718 268° West 418 481 38,000  Level FlightAware ADS-B (BAH / OBBI)
Sun 01:17:15 AM 26.7435 49.8049 268° West 418 481 38,000  Level FlightAware ADS-B (BAH / OBBI)
Sun 01:17:35 AM 26.7422 49.7618 268° West 418 481 38,000  Level FlightAware ADS-B (BAH / OBBI)
Sun 01:18:05 AM 26.7401 49.6957 268° West 418 481 38,000  Level FlightAware ADS-B (BAH / OBBI)
Sun 01:18:44 AM 26.7374 49.6109 268° West 419 482 38,000  Level FlightAware ADS-B (BAH / OBBI)
Sun 01:19:14 AM 26.7353 49.5494 268° West 419 482 38,000  Level FlightAware ADS-B (BAH / OBBI)
Sun 01:19:44 AM 26.7331 49.4829 268° West 418 481 38,000  Level FlightAware ADS-B (BAH / OBBI)
Sun 01:20:04 AM 26.7317 49.4409 268° West 417 480 38,000  Level FlightAware ADS-B (BAH / OBBI)
Sun 01:20:44 AM 26.7295 49.3755 268° West 415 478 38,000  Level FlightAware ADS-B (BAH / OBBI)
Sun 01:21:14 AM 26.7270 49.2976 268° West 413 475 38,000  Level FlightAware ADS-B (BAH / OBBI)
Sun 01:21:30 AM 26.7256 49.2582 268° West 412 474 38,000  Level FlightAware ADS-B (BAH / OBBI)
Sun 01:22:15 AM 26.7223 49.1614 268° West 410 472 38,000  Level FlightAware ADS-B (BAH / OBBI)
Sun 01:22:45 AM 26.7201 49.0971 268° West 409 471 38,000  Level FlightAware ADS-B (BAH / OBBI)
Sun 01:23:00 AM 26.7194 49.0741 268° West 408 470 38,000  Level FlightAware ADS-B (BAH / OBBI)
Sun 01:23:44 AM 26.7159 48.9761 268° West 405 466 38,000  Level FlightAware ADS-B (BAH / OBBI)
Sun 01:23:47 AM 26.7155 48.9658 268° West 405 466 38,000  Level FlightAware ADS-B (BAH / OBBI)
Sun 01:24:41 AM 26.7115 48.8600 268° West 402 463 38,000  Level FlightAware ADS-B (BAH / OBBI)
Sun 01:27:00 AM 26.8598 48.5342 297° West  Level Estimated
Sun 01:28:00 AM 26.9236 48.3934 297° West  Level Estimated
Sun 01:29:00 AM 26.9873 48.2523 297° West  Level Estimated
Sun 01:30:00 AM 27.0508 48.1112 297° West  Level Estimated
Sun 01:31:00 AM 27.1142 47.9698 297° West  Level Estimated
Sun 01:32:00 AM 27.1775 47.8283 297° West  Level Estimated
Sun 01:33:00 AM 27.2406 47.6866 297° West  Level Estimated
Sun 01:34:00 AM 27.3036 47.5448 297° West  Level Estimated
Sun 01:35:00 AM 27.3664 47.4028 297° West  Level Estimated
Sun 01:36:00 AM 27.4290 47.2607 296° West  Level Estimated
Sun 01:37:00 AM 27.4916 47.1184 296° West  Level Estimated
Sun 01:38:00 AM 27.5540 46.9759 296° West  Level Estimated
Sun 01:39:00 AM 27.6162 46.8332 296° West  Level Estimated
Sun 01:40:00 AM 27.6783 46.6905 296° West  Level Estimated
Sun 01:41:00 AM 27.7402 46.5475 296° West  Level Estimated
Sun 01:42:00 AM 27.8020 46.4044 296° West  Level Estimated
Sun 01:43:00 AM 27.8637 46.2611 296° West  Level Estimated
Sun 01:44:00 AM 27.9252 46.1176 296° West  Level Estimated
Sun 01:45:00 AM 27.9865 45.9740 296° West  Level Estimated
Sun 01:46:00 AM 28.0478 45.8303 296° West  Level Estimated
Sun 01:47:00 AM 28.1088 45.6863 296° West  Level Estimated
Sun 01:48:00 AM 28.1697 45.5422 296° West  Level Estimated
Sun 01:49:00 AM 28.2305 45.3980 296° West  Level Estimated
Sun 01:50:00 AM 28.2911 45.2535 296° West  Level Estimated
Sun 01:51:00 AM 28.3515 45.1089 295° West  Level Estimated
Sun 01:52:00 AM 28.4118 44.9642 295° West  Level Estimated
Sun 01:53:00 AM 28.4720 44.8193 295° West  Level Estimated
Sun 01:54:00 AM 28.5320 44.6742 295° West  Level Estimated
Sun 01:55:00 AM 28.5918 44.5289 295° West  Level Estimated
Sun 01:56:00 AM 28.6515 44.3835 295° West  Level Estimated
Sun 01:57:00 AM 28.7110 44.2379 295° West  Level Estimated
Sun 01:58:00 AM 28.7704 44.0922 295° West  Level Estimated
Sun 01:59:00 AM 28.8296 43.9463 295° West  Level Estimated
Sun 02:00:00 AM 28.8887 43.8002 295° West  Level Estimated
Sun 02:01:00 AM 28.9476 43.6539 295° West  Level Estimated
Sun 02:02:00 AM 29.0063 43.5075 295° West  Level Estimated
Sun 02:03:00 AM 29.0649 43.3609 295° West  Level Estimated
Sun 02:04:00 AM 29.1233 43.2142 295° West  Level Estimated
Sun 02:05:00 AM 29.1816 43.0673 294° West  Level Estimated
Sun 02:06:00 AM 29.2397 42.9202 294° West  Level Estimated
Sun 02:07:00 AM 29.2976 42.7730 294° West  Level Estimated
Sun 02:08:00 AM 29.3554 42.6255 294° West  Level Estimated
Sun 02:09:00 AM 29.4130 42.4780 294° West  Level Estimated
Sun 02:10:00 AM 29.4705 42.3302 294° West  Level Estimated
Sun 02:11:00 AM 29.5278 42.1823 294° West  Level Estimated
Sun 02:12:00 AM 29.5849 42.0342 294° West  Level Estimated
Sun 02:13:00 AM 29.6419 41.8860 294° West  Level Estimated
Sun 02:14:00 AM 29.6987 41.7376 294° West  Level Estimated
Sun 02:15:00 AM 29.7553 41.5890 294° West  Level Estimated
Sun 02:16:00 AM 29.8118 41.4402 294° West  Level Estimated
Sun 02:17:00 AM 29.8680 41.2913 294° West  Level Estimated
Sun 02:18:00 AM 29.9242 41.1422 294° West  Level Estimated
Sun 02:19:00 AM 29.9802 40.9930 293° West  Level Estimated
Sun 02:20:00 AM 30.0359 40.8435 293° West  Level Estimated
Sun 02:21:00 AM 30.0916 40.6939 293° West  Level Estimated
Sun 02:22:00 AM 30.1470 40.5442 293° West  Level Estimated
Sun 02:23:00 AM 30.2023 40.3943 293° West  Level Estimated
Sun 02:24:00 AM 30.2574 40.2442 293° West  Level Estimated
Sun 02:25:00 AM 30.3124 40.0939 293° West  Level Estimated
Sun 02:26:00 AM 30.3671 39.9435 293° West  Level Estimated
Sun 02:27:00 AM 30.4217 39.7929 293° West  Level Estimated
Sun 02:28:00 AM 30.4762 39.6421 293° West  Level Estimated
Sun 02:29:00 AM 30.5304 39.4911 293° West  Level Estimated
Sun 02:30:00 AM 30.5845 39.3400 293° West  Level Estimated
Sun 02:31:00 AM 30.6384 39.1888 293° West  Level Estimated
Sun 02:32:00 AM 30.6921 39.0373 292° West  Level Estimated
Sun 02:33:00 AM 30.7457 38.8857 292° West  Level Estimated
Sun 02:34:00 AM 30.7991 38.7339 292° West  Level Estimated
Sun 02:35:00 AM 30.8523 38.5820 292° West  Level Estimated
Sun 02:36:00 AM 30.9053 38.4299 292° West  Level Estimated
Sun 02:37:00 AM 30.9581 38.2776 292° West  Level Estimated
Sun 02:38:00 AM 31.0108 38.1251 292° West  Level Estimated
Sun 02:39:00 AM 31.0633 37.9725 292° West  Level Estimated
Sun 02:40:00 AM 31.1156 37.8197 292° West  Level Estimated
Sun 02:41:00 AM 31.1677 37.6668 292° West  Level Estimated
Sun 02:42:00 AM 31.2197 37.5136 292° West  Level Estimated
Sun 02:43:00 AM 31.2714 37.3603 292° West  Level Estimated
Sun 02:44:00 AM 31.3230 37.2069 292° West  Level Estimated
Sun 02:45:00 AM 31.3744 37.0532 291° West  Level Estimated
Sun 02:46:00 AM 31.4256 36.8994 291° West  Level Estimated
Sun 02:47:00 AM 31.4767 36.7455 291° West  Level Estimated
Sun 02:48:00 AM 31.5275 36.5914 291° West  Level Estimated
Sun 02:49:00 AM 31.5782 36.4370 291° West  Level Estimated
Sun 02:50:00 AM 31.6287 36.2826 291° West  Level Estimated
Sun 02:51:00 AM 31.6789 36.1279 291° West  Level Estimated
Sun 02:52:00 AM 31.7226 35.9932 291° West  Level Estimated
Sun 02:53:00 AM 31.7226 35.9932 North  Level Estimated
Sun 02:54:00 AM 31.7226 35.9932 North  Level Estimated
Sun 02:55:00 AM 31.7226 35.9932 North  Level Estimated
Sun 02:56:00 AM 31.7226 35.9932 North  Level Estimated
Sun 02:57:00 AM 31.7226 35.9932 North  Level Estimated
Sun 02:58:00 AM 31.7226 35.9932 North  Level Estimated
Sun 02:59:00 AM 31.7226 35.9932 North  Level Estimated
Sun 03:00:00 AM 31.7226 35.9932 North  Level Estimated
Sun 03:01:00 AM 31.7226 35.9932 North  Level Estimated
Sun 03:02:00 AM 31.7226 35.9932 North  Level Estimated
Sun 03:03:00 AM 31.7226 35.9932 North  Level Estimated
Sun 03:04:00 AM 31.7226 35.9932 North  Level Estimated
Sun 03:05:00 AM 31.7226 35.9932 North  Level Estimated
Sun 03:06:00 AM 31.7226 35.9932 North  Level Estimated
Sun 03:07:00 AM 31.7226 35.9932 North  Level Estimated
Sun 03:08:00 AM 31.7226 35.9932 North  Level Estimated
Sun 03:09:00 AM 31.7226 35.9932 North  Level Estimated
Sun 03:10:00 AM 31.7226 35.9932 North  Level Estimated
Sun 03:11:00 AM 31.7226 35.9932 North  Level Estimated
Sun 03:12:00 AM 31.7226 35.9932 North  Level Estimated
Sun 03:13:00 AM 31.7226 35.9932 North  Level Estimated
Sun 03:14:00 AM 31.7226 35.9932 North  Level Estimated
Sun 03:15:00 AM 31.7226 35.9932 North  Level Estimated
Sun 03:16:00 AM 31.7226 35.9932 North  Level Estimated
Sun 03:17:00 AM 31.7226 35.9932 North  Level Estimated
Sun 03:18:00 AM 31.7226 35.9932 North  Level Estimated

Login

Don't have an account? Register now (free) for customized features, flight alerts, and more!